sensor_id;sensor_type;location;lat;lon;timestamp;pressure;altitude;pressure_sealevel;temperature
43802;BMP280;29429;51.074;13.764;2022-12-11T00:00:26;99344.34;;;1.06
43802;BMP280;29429;51.074;13.764;2022-12-11T00:02:53;99336.09;;;1.01
43802;BMP280;29429;51.074;13.764;2022-12-11T00:05:20;99336.94;;;1.02
43802;BMP280;29429;51.074;13.764;2022-12-11T00:07:47;99339.72;;;1.00
43802;BMP280;29429;51.074;13.764;2022-12-11T00:10:14;99337.75;;;1.02
43802;BMP280;29429;51.074;13.764;2022-12-11T00:12:41;99342.19;;;1.02
43802;BMP280;29429;51.074;13.764;2022-12-11T00:15:08;99343.00;;;1.02
43802;BMP280;29429;51.074;13.764;2022-12-11T00:17:37;99341.03;;;1.04
43802;BMP280;29429;51.074;13.764;2022-12-11T00:20:04;99348.78;;;1.06
43802;BMP280;29429;51.074;13.764;2022-12-11T00:22:31;99348.56;;;0.99
43802;BMP280;29429;51.074;13.764;2022-12-11T00:24:58;99351.19;;;0.99
43802;BMP280;29429;51.074;13.764;2022-12-11T00:27:25;99350.53;;;0.97
43802;BMP280;29429;51.074;13.764;2022-12-11T00:29:52;99349.88;;;1.03
43802;BMP280;29429;51.074;13.764;2022-12-11T00:32:19;99348.56;;;0.99
43802;BMP280;29429;51.074;13.764;2022-12-11T00:34:46;99353.50;;;1.02
43802;BMP280;29429;51.074;13.764;2022-12-11T00:37:13;99347.59;;;1.00
43802;BMP280;29429;51.074;13.764;2022-12-11T00:39:40;99346.59;;;1.01
43802;BMP280;29429;51.074;13.764;2022-12-11T00:42:08;99353.50;;;1.02
43802;BMP280;29429;51.074;13.764;2022-12-11T00:44:35;99353.16;;;0.97
43802;BMP280;29429;51.074;13.764;2022-12-11T00:47:02;99356.91;;;0.95
43802;BMP280;29429;51.074;13.764;2022-12-11T00:49:30;99346.78;;;0.82
43802;BMP280;29429;51.074;13.764;2022-12-11T00:51:57;99349.28;;;0.84
43802;BMP280;29429;51.074;13.764;2022-12-11T00:54:24;99356.31;;;0.83
43802;BMP280;29429;51.074;13.764;2022-12-11T00:56:51;99343.78;;;0.77
43802;BMP280;29429;51.074;13.764;2022-12-11T00:59:18;99351.72;;;0.85
43802;BMP280;29429;51.074;13.764;2022-12-11T01:01:45;99349.81;;;0.87
43802;BMP280;29429;51.074;13.764;2022-12-11T01:04:12;99358.81;;;0.85
43802;BMP280;29429;51.074;13.764;2022-12-11T01:06:39;99349.75;;;0.79
43802;BMP280;29429;51.074;13.764;2022-12-11T01:09:06;99359.88;;;0.74
43802;BMP280;29429;51.074;13.764;2022-12-11T01:11:51;99350.34;;;0.73
43802;BMP280;29429;51.074;13.764;2022-12-11T01:14:18;99355.72;;;0.72
43802;BMP280;29429;51.074;13.764;2022-12-11T01:16:45;99361.13;;;0.70
43802;BMP280;29429;51.074;13.764;2022-12-11T01:19:12;99360.16;;;0.71
43802;BMP280;29429;51.074;13.764;2022-12-11T01:21:39;99368.16;;;0.70
43802;BMP280;29429;51.074;13.764;2022-12-11T01:24:06;99358.81;;;0.67
43802;BMP280;29429;51.074;13.764;2022-12-11T01:26:34;99360.16;;;0.71
43802;BMP280;29429;51.074;13.764;2022-12-11T01:29:01;99359.88;;;0.74
43802;BMP280;29429;51.074;13.764;2022-12-11T01:31:28;99370.88;;;0.78
43802;BMP280;29429;51.074;13.764;2022-12-11T01:33:55;99358.22;;;0.73
43802;BMP280;29429;51.074;13.764;2022-12-11T01:36:23;99366.38;;;0.70
43802;BMP280;29429;51.074;13.764;2022-12-11T01:38:50;99366.53;;;0.69
43802;BMP280;29429;51.074;13.764;2022-12-11T01:41:17;99372.91;;;0.66
43802;BMP280;29429;51.074;13.764;2022-12-11T01:45:09;99379.78;;;0.67
43802;BMP280;29429;51.074;13.764;2022-12-11T01:46:54;99366.91;;;0.56
43802;BMP280;29429;51.074;13.764;2022-12-11T01:49:24;99372.03;;;0.57
43802;BMP280;29429;51.074;13.764;2022-12-11T01:52:02;99371.78;;;0.51
43802;BMP280;29429;51.074;13.764;2022-12-11T01:54:33;99359.50;;;0.51
43802;BMP280;29429;51.074;13.764;2022-12-11T01:57:05;99365.28;;;0.55
43802;BMP280;29429;51.074;13.764;2022-12-11T01:59:38;99364.28;;;0.56
43802;BMP280;29429;51.074;13.764;2022-12-11T02:02:22;99360.09;;;0.45
43802;BMP280;29429;51.074;13.764;2022-12-11T02:04:51;99363.63;;;0.54
43802;BMP280;29429;51.074;13.764;2022-12-11T02:07:18;99366.09;;;0.55
43802;BMP280;29429;51.074;13.764;2022-12-11T02:09:47;99360.03;;;0.55
43802;BMP280;29429;51.074;13.764;2022-12-11T02:12:41;99365.41;;;0.53
43802;BMP280;29429;51.074;13.764;2022-12-11T02:15:35;99364.38;;;0.46
43802;BMP280;29429;51.074;13.764;2022-12-11T02:21:12;99355.97;;;0.43
43802;BMP280;29429;51.074;13.764;2022-12-11T02:24:56;99360.91;;;0.46
43802;BMP280;29429;51.074;13.764;2022-12-11T02:27:35;99359.28;;;0.45
43802;BMP280;29429;51.074;13.764;2022-12-11T02:30:12;99354.03;;;0.45
43802;BMP280;29429;51.074;13.764;2022-12-11T02:33:03;99353.88;;;0.46
43802;BMP280;29429;51.074;13.764;2022-12-11T02:35:39;99350.34;;;0.38
43802;BMP280;29429;51.074;13.764;2022-12-11T02:38:23;99349.38;;;0.39
43802;BMP280;29429;51.074;13.764;2022-12-11T02:40:54;99352.69;;;0.41
43802;BMP280;29429;51.074;13.764;2022-12-11T02:43:25;99344.34;;;0.45
43802;BMP280;29429;51.074;13.764;2022-12-11T02:45:54;99353.72;;;0.48
43802;BMP280;29429;51.074;13.764;2022-12-11T02:48:23;99355.09;;;0.52
43802;BMP280;29429;51.074;13.764;2022-12-11T02:50:56;99350.13;;;0.49
43802;BMP280;29429;51.074;13.764;2022-12-11T02:53:28;99357.84;;;0.50
43802;BMP280;29429;51.074;13.764;2022-12-11T02:56:14;99348.81;;;0.45
43802;BMP280;29429;51.074;13.764;2022-12-11T02:58:51;99352.69;;;0.41
43802;BMP280;29429;51.074;13.764;2022-12-11T03:01:25;99351.84;;;0.40
43802;BMP280;29429;51.074;13.764;2022-12-11T03:03:54;99352.69;;;0.41
43802;BMP280;29429;51.074;13.764;2022-12-11T03:06:28;99354.63;;;0.39
43802;BMP280;29429;51.074;13.764;2022-12-11T03:08:57;99355.91;;;0.35
43802;BMP280;29429;51.074;13.764;2022-12-11T03:11:24;99347.44;;;0.41
43802;BMP280;29429;51.074;13.764;2022-12-11T03:13:52;99355.97;;;0.43
43802;BMP280;29429;51.074;13.764;2022-12-11T03:16:38;99343.56;;;0.45
43802;BMP280;29429;51.074;13.764;2022-12-11T03:19:34;99351.03;;;0.40
43802;BMP280;29429;51.074;13.764;2022-12-11T03:22:20;99348.72;;;0.37
43802;BMP280;29429;51.074;13.764;2022-12-11T03:25:00;99351.94;;;0.31
43802;BMP280;29429;51.074;13.764;2022-12-11T03:27:47;99355.53;;;0.30
43802;BMP280;29429;51.074;13.764;2022-12-11T03:30:20;99353.28;;;0.35
43802;BMP280;29429;51.074;13.764;2022-12-11T03:32:54;99361.59;;;0.48
43802;BMP280;29429;51.074;13.764;2022-12-11T03:35:42;99358.47;;;0.44
43802;BMP280;29429;51.074;13.764;2022-12-11T03:38:22;99363.53;;;0.46
43802;BMP280;29429;51.074;13.764;2022-12-11T03:40:55;99353.59;;;0.49
43802;BMP280;29429;51.074;13.764;2022-12-11T03:43:25;99350.13;;;0.49
43802;BMP280;29429;51.074;13.764;2022-12-11T03:45:54;99356.75;;;0.53
43802;BMP280;29429;51.074;13.764;2022-12-11T03:48:22;99365.56;;;0.52
43802;BMP280;29429;51.074;13.764;2022-12-11T03:50:51;99360.53;;;0.41
43802;BMP280;29429;51.074;13.764;2022-12-11T03:53:20;99360.41;;;0.42
43802;BMP280;29429;51.074;13.764;2022-12-11T03:55:49;99365.03;;;0.48
43802;BMP280;29429;51.074;13.764;2022-12-11T03:58:17;99359.78;;;0.48
43802;BMP280;29429;51.074;13.764;2022-12-11T04:00:44;99363.63;;;0.54
43802;BMP280;29429;51.074;13.764;2022-12-11T04:03:10;99357.03;;;0.50
43802;BMP280;29429;51.074;13.764;2022-12-11T04:05:44;99360.91;;;0.46
43802;BMP280;29429;51.074;13.764;2022-12-11T04:08:13;99356.25;;;0.40
43802;BMP280;29429;51.074;13.764;2022-12-11T04:10:41;99355.00;;;0.44
43802;BMP280;29429;51.074;13.764;2022-12-11T04:13:09;99359.59;;;0.42
43802;BMP280;29429;51.074;13.764;2022-12-11T04:15:37;99357.34;;;0.47
43802;BMP280;29429;51.074;13.764;2022-12-11T04:18:06;99368.88;;;0.54
43802;BMP280;29429;51.074;13.764;2022-12-11T04:20:54;99363.84;;;0.43
43802;BMP280;29429;51.074;13.764;2022-12-11T04:23:40;99366.25;;;0.36
43802;BMP280;29429;51.074;13.764;2022-12-11T04:26:25;99365.72;;;0.33
43802;BMP280;29429;51.074;13.764;2022-12-11T04:28:52;99365.72;;;0.33
43802;BMP280;29429;51.074;13.764;2022-12-11T04:31:21;99370.50;;;0.37
43802;BMP280;29429;51.074;13.764;2022-12-11T04:33:49;99365.41;;;0.36
43802;BMP280;29429;51.074;13.764;2022-12-11T04:36:16;99362.63;;;0.37
43802;BMP280;29429;51.074;13.764;2022-12-11T04:38:43;99367.59;;;0.40
43802;BMP280;29429;51.074;13.764;2022-12-11T04:41:13;99367.75;;;0.39
43802;BMP280;29429;51.074;13.764;2022-12-11T04:43:42;99360.34;;;0.34
43802;BMP280;29429;51.074;13.764;2022-12-11T04:46:22;99355.53;;;0.30
43802;BMP280;29429;51.074;13.764;2022-12-11T04:48:51;99348.03;;;0.35
43802;BMP280;29429;51.074;13.764;2022-12-11T04:51:24;99352.97;;;0.38
43802;BMP280;29429;51.074;13.764;2022-12-11T04:53:51;99354.25;;;0.34
43802;BMP280;29429;51.074;13.764;2022-12-11T04:56:19;99358.22;;;0.38
43802;BMP280;29429;51.074;13.764;2022-12-11T04:58:46;99349.94;;;0.42
43802;BMP280;29429;51.074;13.764;2022-12-11T05:01:18;99359.59;;;0.42
43802;BMP280;29429;51.074;13.764;2022-12-11T05:03:46;99347.06;;;0.36
43802;BMP280;29429;51.074;13.764;2022-12-11T05:06:13;99341.44;;;0.31
43802;BMP280;29429;51.074;13.764;2022-12-11T05:08:41;99344.16;;;0.39
43802;BMP280;29429;51.074;13.764;2022-12-11T05:11:12;99341.91;;;0.44
43802;BMP280;29429;51.074;13.764;2022-12-11T05:13:39;99338.81;;;0.48
43802;BMP280;29429;51.074;13.764;2022-12-11T05:16:10;99330.28;;;0.46
43802;BMP280;29429;51.074;13.764;2022-12-11T05:18:37;99342.94;;;0.51
43802;BMP280;29429;51.074;13.764;2022-12-11T05:21:08;99334.94;;;0.52
43802;BMP280;29429;51.074;13.764;2022-12-11T05:23:36;99323.69;;;0.42
43802;BMP280;29429;51.074;13.764;2022-12-11T05:26:14;99323.91;;;0.49
43802;BMP280;29429;51.074;13.764;2022-12-11T05:28:42;99335.75;;;0.53
43802;BMP280;29429;51.074;13.764;2022-12-11T05:31:17;99328.19;;;0.50
43802;BMP280;29429;51.074;13.764;2022-12-11T05:33:46;99337.97;;;0.48
43802;BMP280;29429;51.074;13.764;2022-12-11T05:36:30;99333.56;;;0.48
43802;BMP280;29429;51.074;13.764;2022-12-11T05:38:59;99328.78;;;0.44
43802;BMP280;29429;51.074;13.764;2022-12-11T05:41:29;99333.66;;;0.39
43802;BMP280;29429;51.074;13.764;2022-12-11T05:43:56;99322.56;;;0.27
43802;BMP280;29429;51.074;13.764;2022-12-11T05:46:27;99324.72;;;0.14
43802;BMP280;29429;51.074;13.764;2022-12-11T05:49:00;99324.91;;;0.13
43802;BMP280;29429;51.074;13.764;2022-12-11T05:51:28;99322.84;;;0.07
43802;BMP280;29429;51.074;13.764;2022-12-11T05:53:57;99330.06;;;0.05
43802;BMP280;29429;51.074;13.764;2022-12-11T05:56:31;99322.09;;;-0.04
43802;BMP280;29429;51.074;13.764;2022-12-11T05:59:01;99321.03;;;-0.11
43802;BMP280;29429;51.074;13.764;2022-12-11T06:01:41;99328.59;;;-0.08
43802;BMP280;29429;51.074;13.764;2022-12-11T06:04:10;99326.97;;;-0.09
43802;BMP280;29429;51.074;13.764;2022-12-11T06:06:38;99327.09;;;-0.10
43802;BMP280;29429;51.074;13.764;2022-12-11T06:09:06;99321.34;;;-0.14
43802;BMP280;29429;51.074;13.764;2022-12-11T06:11:34;99324.94;;;-0.15
43802;BMP280;29429;51.074;13.764;2022-12-11T06:14:02;99322.22;;;-0.23
43802;BMP280;29429;51.074;13.764;2022-12-11T06:16:30;99321.84;;;-0.28
43802;BMP280;29429;51.074;13.764;2022-12-11T06:18:58;99320.22;;;-0.11
43802;BMP280;29429;51.074;13.764;2022-12-11T06:21:28;99325.38;;;-0.19
43802;BMP280;29429;51.074;13.764;2022-12-11T06:23:59;99321.25;;;-0.22
43802;BMP280;29429;51.074;13.764;2022-12-11T06:26:27;99328.22;;;-0.13
43802;BMP280;29429;51.074;13.764;2022-12-11T06:28:54;99330.25;;;-0.07
43802;BMP280;29429;51.074;13.764;2022-12-11T06:31:21;99328.59;;;-0.08
43802;BMP280;29429;51.074;13.764;2022-12-11T06:33:49;99321.09;;;-0.20
43802;BMP280;29429;51.074;13.764;2022-12-11T06:36:20;99333.06;;;-0.18
43802;BMP280;29429;51.074;13.764;2022-12-11T06:38:47;99335.69;;;-0.18
43802;BMP280;29429;51.074;13.764;2022-12-11T06:41:15;99335.31;;;-0.23
43802;BMP280;29429;51.074;13.764;2022-12-11T06:43:42;99319.22;;;-0.28
43802;BMP280;29429;51.074;13.764;2022-12-11T06:46:16;99334.25;;;-0.30
43802;BMP280;29429;51.074;13.764;2022-12-11T06:48:43;99335.50;;;-0.34
43802;BMP280;29429;51.074;13.764;2022-12-11T06:51:14;99338.81;;;-0.32
43802;BMP280;29429;51.074;13.764;2022-12-11T06:53:42;99340.47;;;-0.31
43802;BMP280;29429;51.074;13.764;2022-12-11T06:56:14;99335.75;;;-0.27
43802;BMP280;29429;51.074;13.764;2022-12-11T06:58:42;99337.56;;;-0.28
43802;BMP280;29429;51.074;13.764;2022-12-11T07:01:28;99340.00;;;-0.26
43802;BMP280;29429;51.074;13.764;2022-12-11T07:03:57;99342.69;;;-0.36
43802;BMP280;29429;51.074;13.764;2022-12-11T07:06:28;99346.53;;;-0.30
43802;BMP280;29429;51.074;13.764;2022-12-11T07:08:55;99355.13;;;-0.38
43802;BMP280;29429;51.074;13.764;2022-12-11T07:11:23;99353.06;;;-0.44
43802;BMP280;29429;51.074;13.764;2022-12-11T07:13:50;99363.44;;;-0.52
43802;BMP280;29429;51.074;13.764;2022-12-11T07:16:17;99366.06;;;-0.52
43802;BMP280;29429;51.074;13.764;2022-12-11T07:18:49;99351.91;;;-0.59
43802;BMP280;29429;51.074;13.764;2022-12-11T07:21:19;99351.31;;;-0.53
43802;BMP280;29429;51.074;13.764;2022-12-11T07:23:47;99358.41;;;-0.36
43802;BMP280;29429;51.074;13.764;2022-12-11T07:26:18;99349.88;;;-0.38
43802;BMP280;29429;51.074;13.764;2022-12-11T07:28:46;99358.03;;;-0.41
43802;BMP280;29429;51.074;13.764;2022-12-11T07:31:18;99358.78;;;-0.31
43802;BMP280;29429;51.074;13.764;2022-12-11T07:33:45;99358.22;;;-0.25
43802;BMP280;29429;51.074;13.764;2022-12-11T07:36:14;99369.09;;;-0.20
43802;BMP280;29429;51.074;13.764;2022-12-11T07:38:41;99356.03;;;-0.29
43802;BMP280;29429;51.074;13.764;2022-12-11T07:41:13;99365.81;;;-0.31
43802;BMP280;29429;51.074;13.764;2022-12-11T07:43:41;99365.97;;;-0.33
43802;BMP280;29429;51.074;13.764;2022-12-11T07:46:13;99368.59;;;-0.33
43802;BMP280;29429;51.074;13.764;2022-12-11T07:48:42;99375.56;;;-0.24
43802;BMP280;29429;51.074;13.764;2022-12-11T07:51:17;99373.94;;;-0.25
43802;BMP280;29429;51.074;13.764;2022-12-11T07:53:47;99366.66;;;-0.31
43802;BMP280;29429;51.074;13.764;2022-12-11T07:56:17;99380.56;;;-0.30
43802;BMP280;29429;51.074;13.764;2022-12-11T07:58:45;99373.06;;;-0.43
43802;BMP280;29429;51.074;13.764;2022-12-11T08:01:19;99374.28;;;-0.37
43802;BMP280;29429;51.074;13.764;2022-12-11T08:03:48;99378.34;;;-0.25
43802;BMP280;29429;51.074;13.764;2022-12-11T08:06:17;99373.41;;;-0.28
43802;BMP280;29429;51.074;13.764;2022-12-11T08:08:44;99376.84;;;-0.28
43802;BMP280;29429;51.074;13.764;2022-12-11T08:11:13;99379.06;;;-0.33
43802;BMP280;29429;51.074;13.764;2022-12-11T08:13:41;99371.66;;;-0.37
43802;BMP280;29429;51.074;13.764;2022-12-11T08:16:12;99378.13;;;-0.41
43802;BMP280;29429;51.074;13.764;2022-12-11T08:18:41;99370.66;;;-0.36
43802;BMP280;29429;51.074;13.764;2022-12-11T08:21:21;99378.41;;;-0.35
43802;BMP280;29429;51.074;13.764;2022-12-11T08:23:50;99373.72;;;-0.41
43802;BMP280;29429;51.074;13.764;2022-12-11T08:26:25;99365.88;;;-0.41
43802;BMP280;29429;51.074;13.764;2022-12-11T08:28:53;99378.28;;;-0.43
43802;BMP280;29429;51.074;13.764;2022-12-11T08:31:21;99376.34;;;-0.41
43802;BMP280;29429;51.074;13.764;2022-12-11T08:33:48;99371.22;;;-0.33
43802;BMP280;29429;51.074;13.764;2022-12-11T08:36:19;99368.97;;;-0.28
43802;BMP280;29429;51.074;13.764;2022-12-11T08:38:49;99373.78;;;-0.23
43802;BMP280;29429;51.074;13.764;2022-12-11T08:41:25;99365.78;;;-0.22
43802;BMP280;29429;51.074;13.764;2022-12-11T08:43:54;99356.19;;;-0.31
43802;BMP280;29429;51.074;13.764;2022-12-11T08:46:25;99370.94;;;-0.30
43802;BMP280;29429;51.074;13.764;2022-12-11T08:48:54;99362.31;;;-0.40
43802;BMP280;29429;51.074;13.764;2022-12-11T08:51:24;99360.25;;;-0.46
43802;BMP280;29429;51.074;13.764;2022-12-11T08:53:55;99370.44;;;-0.43
43802;BMP280;29429;51.074;13.764;2022-12-11T08:56:24;99367.13;;;-0.45
43802;BMP280;29429;51.074;13.764;2022-12-11T08:58:52;99363.00;;;-0.47
43802;BMP280;29429;51.074;13.764;2022-12-11T09:01:25;99371.34;;;-0.34
43802;BMP280;29429;51.074;13.764;2022-12-11T09:03:54;99370.81;;;-0.38
43802;BMP280;29429;51.074;13.764;2022-12-11T09:06:24;99373.84;;;-0.42
43802;BMP280;29429;51.074;13.764;2022-12-11T09:08:52;99367.13;;;-0.45
43802;BMP280;29429;51.074;13.764;2022-12-11T09:11:27;99385.72;;;-0.38
43802;BMP280;29429;51.074;13.764;2022-12-11T09:13:55;99376.53;;;-0.52
43802;BMP280;29429;51.074;13.764;2022-12-11T09:16:26;99378.59;;;-0.46
43802;BMP280;29429;51.074;13.764;2022-12-11T09:18:55;99389.88;;;-0.45
43802;BMP280;29429;51.074;13.764;2022-12-11T09:21:27;99378.88;;;-0.49
43802;BMP280;29429;51.074;13.764;2022-12-11T09:23:58;99377.25;;;-0.59
43802;BMP280;29429;51.074;13.764;2022-12-11T09:26:28;99379.03;;;-0.60
43802;BMP280;29429;51.074;13.764;2022-12-11T09:28:56;99371.97;;;-0.50
43802;BMP280;29429;51.074;13.764;2022-12-11T09:31:29;99351.28;;;-0.43
43802;BMP280;29429;51.074;13.764;2022-12-11T09:34:04;99365.88;;;-0.41
43802;BMP280;29429;51.074;13.764;2022-12-11T09:36:31;99345.94;;;-0.51
43802;BMP280;29429;51.074;13.764;2022-12-11T09:39:00;99368.94;;;-0.45
43802;BMP280;29429;51.074;13.764;2022-12-11T09:46:39;99363.06;;;-0.30
43802;BMP280;29429;51.074;13.764;2022-12-11T09:49:28;99361.81;;;-0.26
43802;BMP280;29429;51.074;13.764;2022-12-11T09:52:33;99355.31;;;-0.22
43802;BMP280;29429;51.074;13.764;2022-12-11T09:55:24;99356.91;;;-0.11
43802;BMP280;29429;51.074;13.764;2022-12-11T09:58:22;99356.63;;;-0.08
43802;BMP280;29429;51.074;13.764;2022-12-11T10:01:16;99360.59;;;0.14
43802;BMP280;29429;51.074;13.764;2022-12-11T10:04:00;99360.56;;;0.23
43802;BMP280;29429;51.074;13.764;2022-12-11T10:06:47;99349.78;;;0.26
43802;BMP280;29429;51.074;13.764;2022-12-11T10:09:31;99337.38;;;0.19
43802;BMP280;29429;51.074;13.764;2022-12-11T10:15:15;99344.91;;;0.31
43802;BMP280;29429;51.074;13.764;2022-12-11T10:17:46;99334.31;;;0.41
43802;BMP280;29429;51.074;13.764;2022-12-11T10:20:25;99336.44;;;0.55
43802;BMP280;29429;51.074;13.764;2022-12-11T10:22:55;99326.84;;;0.64
43802;BMP280;29429;51.074;13.764;2022-12-11T10:25:31;99319.31;;;0.69
43802;BMP280;29429;51.074;13.764;2022-12-11T10:28:16;99319.41;;;0.59
43802;BMP280;29429;51.074;13.764;2022-12-11T10:33:43;99314.53;;;0.46
43802;BMP280;29429;51.074;13.764;2022-12-11T10:36:26;99324.28;;;0.54
43802;BMP280;29429;51.074;13.764;2022-12-11T10:38:53;99315.50;;;0.63
43802;BMP280;29429;51.074;13.764;2022-12-11T10:43:57;99320.72;;;0.81
43802;BMP280;29429;51.074;13.764;2022-12-11T10:46:28;99324.69;;;0.85
43802;BMP280;29429;51.074;13.764;2022-12-11T10:48:59;99322.44;;;0.90
43802;BMP280;29429;51.074;13.764;2022-12-11T10:54:08;99313.22;;;1.19
43802;BMP280;29429;51.074;13.764;2022-12-11T10:56:47;99298.31;;;1.20
43802;BMP280;29429;51.074;13.764;2022-12-11T10:59:48;99303.63;;;1.36
43802;BMP280;29429;51.074;13.764;2022-12-11T11:02:40;99293.31;;;1.35
43802;BMP280;29429;51.074;13.764;2022-12-11T11:05:16;99293.97;;;1.37
43802;BMP280;29429;51.074;13.764;2022-12-11T11:07:43;99294.09;;;1.35
43802;BMP280;29429;51.074;13.764;2022-12-11T11:12:48;99284.91;;;1.31
43802;BMP280;29429;51.074;13.764;2022-12-11T11:15:27;99284.91;;;1.31
43802;BMP280;29429;51.074;13.764;2022-12-11T11:18:00;99276.69;;;1.26
43802;BMP280;29429;51.074;13.764;2022-12-11T11:20:33;99274.25;;;1.33
43802;BMP280;29429;51.074;13.764;2022-12-11T11:23:07;99274.44;;;1.39
43802;BMP280;29429;51.074;13.764;2022-12-11T11:25:37;99277.19;;;1.30
43802;BMP280;29429;51.074;13.764;2022-12-11T11:28:19;99276.50;;;1.28
43802;BMP280;29429;51.074;13.764;2022-12-11T11:31:29;99268.78;;;1.18
43802;BMP280;29429;51.074;13.764;2022-12-11T11:34:01;99276.50;;;1.28
43802;BMP280;29429;51.074;13.764;2022-12-11T11:36:35;99270.47;;;1.35
43802;BMP280;29429;51.074;13.764;2022-12-11T11:45:02;99255.09;;;1.06
43802;BMP280;29429;51.074;13.764;2022-12-11T11:47:40;99262.88;;;0.90
43802;BMP280;29429;51.074;13.764;2022-12-11T11:50:19;99262.88;;;0.90
43802;BMP280;29429;51.074;13.764;2022-12-11T11:59:02;99258.00;;;0.70
43802;BMP280;29429;51.074;13.764;2022-12-11T12:01:31;99248.69;;;0.49
43802;BMP280;29429;51.074;13.764;2022-12-11T12:04:02;99245.47;;;0.38
43802;BMP280;29429;51.074;13.764;2022-12-11T12:21:04;99238.13;;;0.67
43802;BMP280;29429;51.074;13.764;2022-12-11T12:26:51;99232.28;;;0.73
43802;BMP280;29429;51.074;13.764;2022-12-11T12:29:57;99234.38;;;0.95
43802;BMP280;29429;51.074;13.764;2022-12-11T12:32:47;99235.03;;;0.97
43802;BMP280;29429;51.074;13.764;2022-12-11T12:38:23;99231.41;;;0.98
43802;BMP280;29429;51.074;13.764;2022-12-11T12:44:16;99232.94;;;0.75
43802;BMP280;29429;51.074;13.764;2022-12-11T12:47:01;99242.97;;;0.54
43802;BMP280;29429;51.074;13.764;2022-12-11T12:49:46;99250.78;;;0.46
43802;BMP280;29429;51.074;13.764;2022-12-11T12:52:32;99230.75;;;0.37
43802;BMP280;29429;51.074;13.764;2022-12-11T12:55:19;99234.31;;;0.36
43802;BMP280;29429;51.074;13.764;2022-12-11T12:57:57;99216.94;;;0.35
43802;BMP280;29429;51.074;13.764;2022-12-11T13:00:36;99211.03;;;0.33
43802;BMP280;29429;51.074;13.764;2022-12-11T13:06:09;99205.25;;;0.47
43802;BMP280;29429;51.074;13.764;2022-12-11T13:08:49;99212.72;;;0.68
43802;BMP280;29429;51.074;13.764;2022-12-11T13:11:20;99198.13;;;0.65
43802;BMP280;29429;51.074;13.764;2022-12-11T13:14:23;99213.00;;;0.56
43802;BMP280;29429;51.074;13.764;2022-12-11T13:17:53;99212.81;;;0.50
43802;BMP280;29429;51.074;13.764;2022-12-11T13:20:20;99212.50;;;0.53
43802;BMP280;29429;51.074;13.764;2022-12-11T13:22:55;99205.66;;;0.60
43802;BMP280;29429;51.074;13.764;2022-12-11T13:25:54;99201.09;;;0.70
43802;BMP280;29429;51.074;13.764;2022-12-11T13:33:51;99211.06;;;0.67
43802;BMP280;29429;51.074;13.764;2022-12-11T13:36:22;99216.78;;;0.62
43802;BMP280;29429;51.074;13.764;2022-12-11T13:39:17;99212.75;;;0.42
43802;BMP280;29429;51.074;13.764;2022-12-11T13:41:53;99201.84;;;0.29
43802;BMP280;29429;51.074;13.764;2022-12-11T13:44:28;99217.94;;;0.34
43802;BMP280;29429;51.074;13.764;2022-12-11T13:47:01;99223.25;;;0.24
43802;BMP280;29429;51.074;13.764;2022-12-11T13:49:35;99225.00;;;0.16
43802;BMP280;29429;51.074;13.764;2022-12-11T13:52:04;99225.00;;;0.16
43802;BMP280;29429;51.074;13.764;2022-12-11T13:54:35;99229.25;;;0.17
43802;BMP280;29429;51.074;13.764;2022-12-11T13:59:45;99238.69;;;0.10
43802;BMP280;29429;51.074;13.764;2022-12-11T14:02:21;99229.94;;;0.01
43802;BMP280;29429;51.074;13.764;2022-12-11T14:04:55;99234.97;;;-0.06
43802;BMP280;29429;51.074;13.764;2022-12-11T14:07:31;99225.38;;;-0.15
43802;BMP280;29429;51.074;13.764;2022-12-11T14:10:28;99229.50;;;-0.12
43802;BMP280;29429;51.074;13.764;2022-12-11T14:13:05;99236.91;;;-0.08
43802;BMP280;29429;51.074;13.764;2022-12-11T14:15:35;99229.34;;;-0.11
43802;BMP280;29429;51.074;13.764;2022-12-11T14:18:04;99229.19;;;-0.09
43802;BMP280;29429;51.074;13.764;2022-12-11T14:20:33;99237.53;;;-0.14
43802;BMP280;29429;51.074;13.764;2022-12-11T14:23:16;99232.28;;;-0.14
43802;BMP280;29429;51.074;13.764;2022-12-11T14:25:55;99240.06;;;-0.22
43802;BMP280;29429;51.074;13.764;2022-12-11T14:28:25;99238.56;;;-0.24
43802;BMP280;29429;51.074;13.764;2022-12-11T14:30:58;99247.13;;;-0.32
43802;BMP280;29429;51.074;13.764;2022-12-11T14:33:39;99237.94;;;-0.36
43802;BMP280;29429;51.074;13.764;2022-12-11T14:36:08;99244.97;;;-0.36
43802;BMP280;29429;51.074;13.764;2022-12-11T14:38:46;99239.34;;;-0.41
43802;BMP280;29429;51.074;13.764;2022-12-11T14:41:50;99240.47;;;-0.44
43802;BMP280;29429;51.074;13.764;2022-12-11T14:44:22;99240.19;;;-0.41
43802;BMP280;29429;51.074;13.764;2022-12-11T14:47:01;99245.41;;;-0.41
43802;BMP280;29429;51.074;13.764;2022-12-11T14:49:54;99250.41;;;-0.47
43802;BMP280;29429;51.074;13.764;2022-12-11T14:52:41;99257.66;;;-0.59
43802;BMP280;29429;51.074;13.764;2022-12-11T14:55:24;99255.56;;;-0.55
43802;BMP280;29429;51.074;13.764;2022-12-11T14:58:01;99248.00;;;-0.58
43802;BMP280;29429;51.074;13.764;2022-12-11T15:00:35;99255.47;;;-0.64
43802;BMP280;29429;51.074;13.764;2022-12-11T15:03:29;99251.06;;;-0.63
43802;BMP280;29429;51.074;13.764;2022-12-11T15:05:57;99254.94;;;-0.67
43802;BMP280;29429;51.074;13.764;2022-12-11T15:08:34;99249.47;;;-0.74
43802;BMP280;29429;51.074;13.764;2022-12-11T15:11:10;99254.13;;;-0.68
43802;BMP280;29429;51.074;13.764;2022-12-11T15:14:04;99262.41;;;-0.72
43802;BMP280;29429;51.074;13.764;2022-12-11T15:16:39;99257.47;;;-0.75
43802;BMP280;29429;51.074;13.764;2022-12-11T15:19:20;99253.56;;;-0.71
43802;BMP280;29429;51.074;13.764;2022-12-11T15:21:50;99257.19;;;-0.72
43802;BMP280;29429;51.074;13.764;2022-12-11T15:24:39;99254.31;;;-0.79
43802;BMP280;29429;51.074;13.764;2022-12-11T15:27:24;99261.03;;;-0.76
43802;BMP280;29429;51.074;13.764;2022-12-11T15:29:52;99249.22;;;-0.80
43802;BMP280;29429;51.074;13.764;2022-12-11T15:32:20;99250.34;;;-0.83
43802;BMP280;29429;51.074;13.764;2022-12-11T15:34:57;99258.19;;;-0.83
43802;BMP280;29429;51.074;13.764;2022-12-11T15:39:57;99251.66;;;-0.69
43802;BMP280;29429;51.074;13.764;2022-12-11T15:42:40;99255.72;;;-0.57
43802;BMP280;29429;51.074;13.764;2022-12-11T15:45:18;99247.47;;;-0.62
43802;BMP280;29429;51.074;13.764;2022-12-11T15:47:47;99246.66;;;-0.63
43802;BMP280;29429;51.074;13.764;2022-12-11T15:50:22;99248.00;;;-0.58
43802;BMP280;29429;51.074;13.764;2022-12-11T15:52:52;99243.59;;;-0.58